KONM

Details ICAO KONM
Name SOCORRO MUNI
Region United States
Timezone America/Denver (UTC-6.0)
Plans Departing 0
Arriving 1
Stats Elevation 4,875 ft / 1,486 m (AMSL)
Location 34.022574° -106.903563°
Runways 2
Magnetic Variation 8.509° E
Sunrise 2018-05-26 12:01:03 UTC / 2018-05-26 06:01:03 Local
Sunset 2018-05-27 02:11:12 UTC / 2018-05-26 20:11:12 Local
Advertisement - Login to hide

Runways

ID Width Length Bearing (true) Bearing (mag) Surface Threshold Offset Overrun Length
06 60 ft / 18 m 4,580 ft / 1,396 m 73.45° 64.94° Asphalt 0 ft / 0 m 0 ft / 0 m
15 100 ft / 30 m 5,854 ft / 1,784 m 163.59° 155.08° Asphalt 185 ft / 56 m 0 ft / 0 m
24 60 ft / 18 m 4,580 ft / 1,396 m 253.46° 244.95° Asphalt 0 ft / 0 m 0 ft / 0 m
33 100 ft / 30 m 5,854 ft / 1,784 m 343.59° 335.08° Asphalt 183 ft / 56 m 0 ft / 0 m

Map

Weather


0- 5 10 15 20 25 30 35+ Temperature / ° C

Clouds and Precipitation
Forecast for 2018-05-26 12:00 UTC. Updated 3 hours ago

Ground ~20,000 ft ~40,000 ft Winds

METAR

KONM 261355Z AUTO 00000KT 10SM CLR 20/M07 A3004 RMK AO2 T01961074

TAF

Not found

Frequencies

Unicom 122.80 MHz CTAF/UNICOM
Warning: Do not use this data for real-world aviation or navigation. No guarantee of current accuracy is given.